This is the latest recevied weather packets stored in our database for station/object W7JFO-3. If no packets are shown the sender has not sent any weather packets the latest 1 day(s).
| Time | Temp. | Humidity | Pressure | Rain* | Wind** | Luminosity | Snow |
|---|---|---|---|---|---|---|---|
| 1778059902 | 5.56° C | 47% | 1014.3 hPa | 0 mm | - | 0 W/m² | - |
| 1778059002 | 5.56° C | 47% | 1014.3 hPa | 0 mm | - | 0 W/m² | - |
| 1778058102 | 5.56° C | 48% | 1014.3 hPa | 0 mm | - | 0 W/m² | - |
| 1778057202 | 5.56° C | 48% | 1014.5 hPa | 0 mm | - | 0 W/m² | - |
| 1778056302 | 6.11° C | 47% | 1014.5 hPa | 0 mm | - | 0 W/m² | - |
| 1778055402 | 6.11° C | 46% | 1014.4 hPa | 0 mm | - | 0 W/m² | - |
| 1778054502 | 6.11° C | 46% | 1014.1 hPa | 0 mm | - | 0 W/m² | - |
| 1778053602 | 6.11° C | 47% | 1014.3 hPa | 0 mm | - | 0 W/m² | - |
| 1778051802 | 5.56° C | 49% | 1014.4 hPa | 0 mm | - | 0 W/m² | - |
| 1778050002 | 6.11° C | 49% | 1014.5 hPa | 0 mm | - | 0 W/m² | - |
| 1778048202 | 6.11° C | 48% | 1014.3 hPa | 0 mm | - | 0 W/m² | - |
| 1778047302 | 6.67° C | 48% | 1014.1 hPa | 0 mm | - | 0 W/m² | - |
| 1778045502 | 6.67° C | 47% | 1014.3 hPa | 0 mm | - | 0 W/m² | - |
| 1778042802 | 7.22° C | 46% | 1014.4 hPa | 0 mm | - | 0 W/m² | - |
| 1778041002 | 7.22° C | 47% | 1014 hPa | 0 mm | - | 0 W/m² | - |
| 1778039202 | 7.78° C | 46% | 1013.7 hPa | 0 mm | - | 0 W/m² | - |
| 1778037402 | 8.33° C | 45% | 1013 hPa | 0 mm | - | 0 W/m² | - |
| 1778032003 | 10.56° C | 40% | 1012.5 hPa | 0 mm | - | 42 W/m² | - |
| 1778031103 | 10.56° C | 39% | 1012.6 hPa | 0 mm | - | 118 W/m² | - |
| 1778030203 | 11.11° C | 37% | 1012.2 hPa | 0 mm | - | 102 W/m² | - |
| 1778029303 | 11.67° C | 37% | 1012.3 hPa | 0 mm | - | 46 W/m² | - |
| 1778028403 | 11.67° C | 36% | 1012.3 hPa | 0 mm | - | 294 W/m² | - |
| 1778027503 | 11.67° C | 36% | 1012.6 hPa | 0 mm | - | 334 W/m² | - |
| 1778026603 | 12.22° C | 35% | 1012.4 hPa | 0 mm | - | 392 W/m² | - |
| 1778024803 | 12.78° C | 35% | 1012.8 hPa | 0 mm | - | 464 W/m² | - |
* Rain latest hour (hover to see other rain measurements)
** Current wind speed in m/s (hover to see current wind gust speed)